createdAt,value
2022-10-28T00:00:23.060Z,11.70
2022-10-28T00:02:53.275Z,12.70
2022-10-28T00:05:27.209Z,12.02
2022-10-28T00:07:56.458Z,12.05
2022-10-28T00:10:29.971Z,12.27
2022-10-28T00:12:58.823Z,12.50
2022-10-28T00:15:28.238Z,12.63
2022-10-28T00:17:57.812Z,12.05
2022-10-28T00:20:33.023Z,11.35
2022-10-28T00:23:04.893Z,11.90
2022-10-28T00:25:47.864Z,11.57
2022-10-28T00:28:22.462Z,11.60
2022-10-28T00:30:55.656Z,11.63
2022-10-28T00:33:26.753Z,11.73
2022-10-28T00:35:57.392Z,11.85
2022-10-28T00:38:28.421Z,12.27
2022-10-28T00:40:57.480Z,11.27
2022-10-28T00:43:48.202Z,12.05
2022-10-28T00:46:28.878Z,11.00
2022-10-28T00:49:01.758Z,11.73
2022-10-28T00:51:34.846Z,10.95
2022-10-28T00:54:08.356Z,10.70
2022-10-28T00:56:45.043Z,11.00
2022-10-28T00:59:23.965Z,11.55
2022-10-28T01:01:58.235Z,11.35
2022-10-28T01:04:28.103Z,11.23
2022-10-28T01:07:00.765Z,11.02
2022-10-28T01:09:29.597Z,11.00
2022-10-28T01:12:08.390Z,10.63
2022-10-28T01:14:57.939Z,10.55
2022-10-28T01:17:40.989Z,10.80
2022-10-28T01:21:08.217Z,10.57
2022-10-28T01:23:53.988Z,10.77
2022-10-28T01:27:08.560Z,11.18
2022-10-28T01:30:15.137Z,10.90
2022-10-28T01:32:57.844Z,11.40
2022-10-28T01:35:36.111Z,11.57
2022-10-28T01:38:30.218Z,10.95
2022-10-28T01:41:12.174Z,11.07
2022-10-28T01:43:49.620Z,11.35
2022-10-28T01:46:23.974Z,11.40
2022-10-28T01:49:01.163Z,11.63
2022-10-28T01:51:36.395Z,10.63
2022-10-28T01:54:12.289Z,11.40
2022-10-28T01:56:44.895Z,11.02
2022-10-28T01:59:18.462Z,10.75
2022-10-28T02:01:48.326Z,10.65
2022-10-28T02:04:22.241Z,10.85
2022-10-28T02:06:57.571Z,11.38
2022-10-28T02:10:00.273Z,11.02
2022-10-28T02:12:34.009Z,11.40
2022-10-28T02:15:27.748Z,11.70
2022-10-28T02:18:17.819Z,11.52
2022-10-28T02:20:54.926Z,11.25
2022-10-28T02:23:37.943Z,12.05
2022-10-28T02:26:19.275Z,11.00
2022-10-28T02:29:01.214Z,11.15
2022-10-28T02:31:36.326Z,10.43
2022-10-28T02:34:13.908Z,10.63
2022-10-28T02:36:50.162Z,10.68
2022-10-28T02:39:24.044Z,10.52
2022-10-28T02:41:56.820Z,11.55
2022-10-28T02:44:30.846Z,11.40
2022-10-28T02:47:13.052Z,10.45
2022-10-28T02:49:47.610Z,10.65
2022-10-28T02:52:22.573Z,10.10
2022-10-28T02:54:56.464Z,10.98
2022-10-28T02:57:28.726Z,10.60
2022-10-28T03:00:01.112Z,10.55
2022-10-28T03:02:36.754Z,11.02
2022-10-28T03:05:07.181Z,10.90
2022-10-28T03:07:49.333Z,10.77
2022-10-28T03:13:03.519Z,10.38
2022-10-28T03:15:32.682Z,11.10
2022-10-28T03:18:02.462Z,10.50
2022-10-28T03:20:31.845Z,10.40
2022-10-28T03:23:04.331Z,11.05
2022-10-28T03:25:33.352Z,10.88
2022-10-28T03:30:49.725Z,10.70
2022-10-28T03:33:18.782Z,10.35
2022-10-28T03:35:48.898Z,10.43
2022-10-28T03:38:32.721Z,10.18
2022-10-28T03:41:01.738Z,10.15
2022-10-28T03:43:31.175Z,9.93
2022-10-28T03:46:02.344Z,10.05
2022-10-28T03:48:32.440Z,10.23
2022-10-28T03:51:01.664Z,10.90
2022-10-28T03:53:37.606Z,9.70
2022-10-28T03:56:08.929Z,9.75
2022-10-28T03:58:41.039Z,10.07
2022-10-28T04:01:11.591Z,10.38
2022-10-28T04:03:41.710Z,10.35
2022-10-28T04:06:11.491Z,10.75
2022-10-28T04:08:42.573Z,9.90
2022-10-28T04:11:16.688Z,9.57
2022-10-28T04:13:49.401Z,9.82
2022-10-28T04:16:22.982Z,10.65
2022-10-28T04:18:52.949Z,10.02
2022-10-28T04:21:26.163Z,9.45
2022-10-28T04:23:59.940Z,9.90
2022-10-28T04:26:33.382Z,10.57
2022-10-28T04:29:02.394Z,9.82
2022-10-28T04:31:31.185Z,10.27
2022-10-28T04:34:02.038Z,9.90
2022-10-28T04:36:35.382Z,9.35
2022-10-28T04:39:05.927Z,9.60
2022-10-28T04:41:39.605Z,9.50
2022-10-28T04:44:08.582Z,9.48
2022-10-28T04:46:42.449Z,9.52
2022-10-28T04:49:29.712Z,9.15
2022-10-28T04:51:58.954Z,9.65
2022-10-28T04:54:30.065Z,9.63
2022-10-28T04:57:00.737Z,8.43
2022-10-28T04:59:29.797Z,9.73
2022-10-28T05:02:03.211Z,9.00
2022-10-28T05:04:35.352Z,9.35
2022-10-28T05:07:06.393Z,9.48
2022-10-28T05:09:41.389Z,9.88
2022-10-28T05:12:11.369Z,9.00
2022-10-28T05:14:43.824Z,9.38
2022-10-28T05:17:13.964Z,8.57
2022-10-28T05:19:58.879Z,8.60
2022-10-28T05:22:30.456Z,9.48
2022-10-28T05:25:01.296Z,8.10
2022-10-28T05:27:30.127Z,8.85
2022-10-28T05:30:06.626Z,9.48
2022-10-28T05:32:35.737Z,9.48
2022-10-28T05:35:04.660Z,8.95
2022-10-28T05:37:37.972Z,9.65
2022-10-28T05:40:17.132Z,8.30
2022-10-28T05:42:46.648Z,9.02
2022-10-28T05:45:20.253Z,8.70
2022-10-28T05:47:55.014Z,8.75
2022-10-28T05:50:28.850Z,9.10
2022-10-28T05:53:03.431Z,8.57
2022-10-28T05:55:35.377Z,8.48
2022-10-28T05:58:07.658Z,8.77
2022-10-28T06:00:41.468Z,8.93
2022-10-28T06:03:16.533Z,8.63
2022-10-28T06:05:52.433Z,8.75
2022-10-28T06:08:29.166Z,8.70
2022-10-28T06:11:02.911Z,9.13
2022-10-28T06:13:32.650Z,8.80
2022-10-28T06:16:03.632Z,8.57
2022-10-28T06:18:35.983Z,8.77
2022-10-28T06:21:09.148Z,8.18
2022-10-28T06:24:01.254Z,8.40
2022-10-28T06:26:34.149Z,8.75
2022-10-28T06:29:03.513Z,8.43
2022-10-28T06:31:35.070Z,8.88
2022-10-28T06:34:09.015Z,8.95
2022-10-28T06:36:43.200Z,8.50
2022-10-28T06:39:12.405Z,8.65
2022-10-28T06:41:46.981Z,8.23
2022-10-28T06:44:19.150Z,9.57
2022-10-28T06:46:55.535Z,8.73
2022-10-28T06:49:35.572Z,8.77
2022-10-28T06:52:16.548Z,9.18
2022-10-28T06:54:50.669Z,9.18
2022-10-28T06:57:24.469Z,9.07
2022-10-28T06:59:56.046Z,9.88
2022-10-28T07:02:26.190Z,8.10
2022-10-28T07:04:59.322Z,9.25
2022-10-28T07:07:28.503Z,9.18
2022-10-28T07:10:01.135Z,9.35
2022-10-28T07:12:32.713Z,9.10
2022-10-28T07:15:18.010Z,9.73
2022-10-28T07:17:56.096Z,8.77
2022-10-28T07:20:36.287Z,9.40
2022-10-28T07:23:11.019Z,8.27
2022-10-28T07:25:41.011Z,9.23
2022-10-28T07:28:20.461Z,8.95
2022-10-28T07:33:43.438Z,8.52
2022-10-28T07:36:24.609Z,8.73
2022-10-28T07:38:56.893Z,8.40
2022-10-28T07:41:28.404Z,8.73
2022-10-28T07:44:04.150Z,8.73
2022-10-28T07:46:36.452Z,8.82
2022-10-28T07:49:05.455Z,8.25
2022-10-28T07:51:38.441Z,9.90
2022-10-28T07:56:57.567Z,8.90
2022-10-28T07:59:37.667Z,8.63
2022-10-28T08:02:08.492Z,9.05
2022-10-28T08:04:40.664Z,8.90
2022-10-28T08:07:10.337Z,9.50
2022-10-28T08:12:34.900Z,8.43
2022-10-28T08:15:15.314Z,8.40
2022-10-28T08:18:07.272Z,7.97
2022-10-28T08:20:36.085Z,7.90
2022-10-28T08:25:53.780Z,8.38
2022-10-28T08:28:31.952Z,8.88
2022-10-28T08:31:10.465Z,8.30
2022-10-28T08:33:47.470Z,9.10
2022-10-28T08:36:22.829Z,8.52
2022-10-28T08:38:56.211Z,8.63
2022-10-28T08:41:46.043Z,8.88
2022-10-28T08:45:25.449Z,8.75
2022-10-28T08:51:04.896Z,9.05
2022-10-28T08:53:42.473Z,9.45
2022-10-28T08:56:33.787Z,9.20
2022-10-28T08:59:19.796Z,8.90
2022-10-28T09:02:05.844Z,8.90
2022-10-28T09:04:43.417Z,9.02
2022-10-28T09:07:25.236Z,8.98
2022-10-28T09:09:58.886Z,8.38
2022-10-28T09:12:48.245Z,8.68
2022-10-28T09:18:42.093Z,8.10
2022-10-28T10:57:59.724Z,6.22
2022-10-28T11:00:34.786Z,6.68
2022-10-28T11:03:09.911Z,6.75
2022-10-28T11:05:41.035Z,7.00
2022-10-28T11:08:37.469Z,6.88
2022-10-28T11:11:15.180Z,6.72
2022-10-28T11:51:44.149Z,6.18
2022-10-28T12:12:32.673Z,5.95
2022-10-28T12:15:15.276Z,6.15
2022-10-28T12:20:32.510Z,5.55
2022-10-28T12:29:18.267Z,5.47
2022-10-28T12:34:45.184Z,5.65
2022-10-28T12:37:19.605Z,6.03
2022-10-28T12:39:57.329Z,5.57
2022-10-28T12:42:31.238Z,6.05
2022-10-28T12:45:09.744Z,5.78
2022-10-28T12:47:46.612Z,5.50
2022-10-28T12:50:26.552Z,6.00
2022-10-28T12:53:18.326Z,6.47
2022-10-28T12:55:56.517Z,6.13
2022-10-28T12:58:36.419Z,6.75
2022-10-28T13:01:12.364Z,6.32
2022-10-28T13:03:46.950Z,5.95
2022-10-28T13:07:05.883Z,6.00
2022-10-28T13:09:52.362Z,5.88
2022-10-28T13:12:59.606Z,6.35
2022-10-28T13:16:02.091Z,6.28
2022-10-28T13:19:18.995Z,5.93
2022-10-28T13:22:46.465Z,5.90
2022-10-28T13:27:58.567Z,6.00
2022-10-28T13:30:29.443Z,6.05
2022-10-28T13:33:09.235Z,6.50
2022-10-28T13:35:39.857Z,6.47
2022-10-28T13:38:17.219Z,6.28
2022-10-28T13:41:32.167Z,6.03
2022-10-28T13:44:30.127Z,5.55
2022-10-28T13:47:25.802Z,5.35
2022-10-28T13:50:25.675Z,6.18
2022-10-28T13:53:56.587Z,4.85
2022-10-28T13:56:48.708Z,5.75
2022-10-28T13:59:30.779Z,5.00
2022-10-28T14:02:33.255Z,4.75
2022-10-28T14:05:03.025Z,4.32
2022-10-28T14:07:34.416Z,4.43
2022-10-28T14:10:24.589Z,4.18
2022-10-28T14:12:56.653Z,4.63
2022-10-28T14:15:31.309Z,4.75
2022-10-28T14:18:15.771Z,4.90
2022-10-28T14:21:07.711Z,5.65
2022-10-28T14:24:15.575Z,5.07
2022-10-28T14:27:31.239Z,4.65
2022-10-28T14:30:25.638Z,4.63
2022-10-28T14:33:27.856Z,5.38
2022-10-28T14:36:17.335Z,5.30
2022-10-28T14:39:21.769Z,5.40
2022-10-28T14:42:17.645Z,5.05
2022-10-28T14:45:19.009Z,5.47
2022-10-28T14:48:41.148Z,5.55
2022-10-28T14:51:15.189Z,5.85
2022-10-28T14:53:48.693Z,6.05
2022-10-28T14:56:29.815Z,5.85
2022-10-28T14:59:09.860Z,5.25
2022-10-28T15:02:03.990Z,5.30
2022-10-28T15:04:33.969Z,5.47
2022-10-28T15:07:04.855Z,5.75
2022-10-28T15:09:35.323Z,5.18
2022-10-28T15:12:11.087Z,5.05
2022-10-28T15:14:44.548Z,5.93
2022-10-28T15:17:18.828Z,5.47
2022-10-28T15:19:50.507Z,5.30
2022-10-28T15:22:28.276Z,5.53
2022-10-28T15:25:00.681Z,5.60
2022-10-28T15:27:33.654Z,6.35
2022-10-28T15:30:03.243Z,6.47
2022-10-28T15:32:36.529Z,5.75
2022-10-28T15:35:41.373Z,5.85
2022-10-28T15:38:40.518Z,5.80
2022-10-28T15:41:49.786Z,6.07
2022-10-28T15:44:31.641Z,5.88
2022-10-28T15:47:02.432Z,6.00
2022-10-28T15:50:07.300Z,6.90
2022-10-28T15:52:42.089Z,6.45
2022-10-28T15:58:40.115Z,7.00
2022-10-28T16:01:28.959Z,6.20
2022-10-28T16:04:01.163Z,6.88
2022-10-28T16:06:37.655Z,6.63
2022-10-28T16:09:20.394Z,6.50
2022-10-28T16:11:57.713Z,6.22
2022-10-28T16:14:36.798Z,5.57
2022-10-28T16:17:10.762Z,6.65
2022-10-28T16:19:43.740Z,6.15
2022-10-28T16:22:16.666Z,6.13
2022-10-28T16:24:45.853Z,5.80
2022-10-28T16:27:21.513Z,5.60
2022-10-28T16:29:51.635Z,5.43
2022-10-28T16:32:30.073Z,6.13
2022-10-28T16:37:45.349Z,6.05
2022-10-28T16:43:16.576Z,7.32
2022-10-28T16:45:45.270Z,7.85
2022-10-28T16:48:16.638Z,7.13
2022-10-28T16:50:50.969Z,6.72
2022-10-28T16:53:21.665Z,9.00
2022-10-28T16:55:50.769Z,7.68
2022-10-28T16:58:23.194Z,8.15
2022-10-28T17:00:58.246Z,8.73
2022-10-28T17:03:28.127Z,6.93
2022-10-28T17:05:57.374Z,7.07
2022-10-28T17:08:56.542Z,6.88
2022-10-28T17:11:18.562Z,7.30
2022-10-28T17:13:58.235Z,6.88
2022-10-28T17:16:28.290Z,7.10
2022-10-28T17:18:57.668Z,6.85
2022-10-28T17:21:36.600Z,7.30
2022-10-28T17:24:21.646Z,7.13
2022-10-28T17:26:54.761Z,6.65
2022-10-28T17:29:26.155Z,6.32
2022-10-28T17:31:55.425Z,6.60
2022-10-28T17:34:26.194Z,7.50
2022-10-28T17:36:57.234Z,7.20
2022-10-28T17:39:28.839Z,6.05
2022-10-28T17:41:58.081Z,5.80
2022-10-28T17:44:30.914Z,6.78
2022-10-28T17:47:02.728Z,5.53
2022-10-28T17:49:37.337Z,7.03
2022-10-28T17:52:07.239Z,5.53
2022-10-28T17:54:42.119Z,5.47
2022-10-28T17:57:20.510Z,5.55
2022-10-28T17:59:52.146Z,5.82
2022-10-28T18:02:24.247Z,5.57
2022-10-28T18:05:09.353Z,6.35
2022-10-28T18:07:46.003Z,6.18
2022-10-28T18:10:20.426Z,5.20
2022-10-28T18:15:53.432Z,5.20
2022-10-28T18:18:31.989Z,5.75
2022-10-28T18:21:07.160Z,5.35
2022-10-28T18:23:36.534Z,5.97
2022-10-28T18:28:59.186Z,5.05
2022-10-28T18:31:49.567Z,4.97
2022-10-28T18:34:18.554Z,5.03
2022-10-28T18:36:50.053Z,5.43
2022-10-28T19:04:09.279Z,5.60
2022-10-28T19:06:45.176Z,5.18
2022-10-28T19:09:30.157Z,4.65
2022-10-28T19:55:30.613Z,6.40
2022-10-28T20:13:19.632Z,6.82
2022-10-28T20:15:48.424Z,5.50
2022-10-28T20:18:17.198Z,5.93
2022-10-28T20:20:45.784Z,5.57
2022-10-28T20:23:14.459Z,6.53
2022-10-28T20:25:52.203Z,6.38
2022-10-28T20:28:24.455Z,5.40
2022-10-28T20:31:01.260Z,5.95
2022-10-28T20:33:33.556Z,5.22
2022-10-28T20:36:03.903Z,5.68
2022-10-28T20:38:32.889Z,6.15
2022-10-28T20:41:03.294Z,5.88
2022-10-28T20:43:47.718Z,5.32
2022-10-28T20:46:20.217Z,6.43
2022-10-28T20:48:51.014Z,5.85
2022-10-28T20:51:19.853Z,5.68
2022-10-28T20:53:53.311Z,5.38
2022-10-28T20:56:25.281Z,5.72
2022-10-28T20:58:57.798Z,5.55
2022-10-28T21:01:38.569Z,6.85
2022-10-28T21:04:09.499Z,6.03
2022-10-28T21:06:43.880Z,6.18
2022-10-28T21:09:15.823Z,5.75
2022-10-28T21:11:47.017Z,5.72
2022-10-28T21:14:20.695Z,5.55
2022-10-28T21:16:53.149Z,5.82
2022-10-28T21:19:26.272Z,7.07
2022-10-28T21:21:55.717Z,6.25
2022-10-28T21:24:25.409Z,7.30
2022-10-28T21:26:55.305Z,7.68
2022-10-28T21:29:26.879Z,7.35
2022-10-28T21:31:55.829Z,6.70
2022-10-28T21:34:25.398Z,8.13
2022-10-28T21:36:54.650Z,6.72
2022-10-28T21:39:25.538Z,8.55
2022-10-28T21:41:55.534Z,7.97
2022-10-28T21:44:27.111Z,7.30
2022-10-28T21:46:58.547Z,6.30
2022-10-28T21:49:28.287Z,6.65
2022-10-28T21:52:03.848Z,7.03
2022-10-28T21:54:36.839Z,7.38
2022-10-28T21:57:14.448Z,7.05
2022-10-28T21:59:50.165Z,7.32
2022-10-28T22:02:20.183Z,7.78
2022-10-28T22:04:50.248Z,7.68
2022-10-28T22:07:19.631Z,7.13
2022-10-28T22:09:50.055Z,7.10
2022-10-28T22:12:19.099Z,7.50
2022-10-28T22:14:52.888Z,7.63
2022-10-28T22:17:23.691Z,7.90
2022-10-28T22:19:57.733Z,7.45
2022-10-28T22:22:35.820Z,7.90
2022-10-28T22:25:09.348Z,8.27
2022-10-28T22:27:43.133Z,7.60
2022-10-28T22:30:43.456Z,7.38
2022-10-28T22:33:18.405Z,9.10
2022-10-28T22:36:04.511Z,8.93
2022-10-28T22:38:38.797Z,7.63
2022-10-28T22:41:14.438Z,8.63
2022-10-28T22:43:48.268Z,9.55
2022-10-28T22:46:24.803Z,9.98
2022-10-28T22:48:55.135Z,10.35
2022-10-28T22:51:31.297Z,10.52
2022-10-28T22:54:06.152Z,10.48
2022-10-28T22:56:35.844Z,11.57
2022-10-28T22:59:09.871Z,10.15
2022-10-28T23:01:47.448Z,11.15
2022-10-28T23:04:39.714Z,11.57
2022-10-28T23:07:17.198Z,10.65
2022-10-28T23:09:50.821Z,11.65
2022-10-28T23:12:39.309Z,10.68
2022-10-28T23:15:21.892Z,11.40
2022-10-28T23:18:11.393Z,12.45
2022-10-28T23:21:00.795Z,13.93
2022-10-28T23:23:37.870Z,14.80
2022-10-28T23:26:13.504Z,14.57
2022-10-28T23:28:43.322Z,15.02
2022-10-28T23:31:16.459Z,16.27
2022-10-28T23:33:53.757Z,16.20
2022-10-28T23:36:27.976Z,16.83
2022-10-28T23:39:03.357Z,16.00
2022-10-28T23:41:37.015Z,16.55
2022-10-28T23:44:08.268Z,16.00
2022-10-28T23:46:42.634Z,14.48
2022-10-28T23:49:18.693Z,15.85
2022-10-28T23:51:59.167Z,14.75
2022-10-28T23:54:36.572Z,15.68
2022-10-28T23:57:12.868Z,15.77
2022-10-28T23:59:49.261Z,16.08
